sensor_id;sensor_type;location;lat;lon;timestamp;P1;durP1;ratioP1;P2;durP2;ratioP2
25615;SDS011;13482;48.234;13.006;2023-04-24T00:01:29;0.98;;;0.55;;
25615;SDS011;13482;48.234;13.006;2023-04-24T00:03:57;1.05;;;0.60;;
25615;SDS011;13482;48.234;13.006;2023-04-24T00:06:26;2.03;;;0.63;;
25615;SDS011;13482;48.234;13.006;2023-04-24T00:09:03;0.68;;;0.40;;
25615;SDS011;13482;48.234;13.006;2023-04-24T00:11:31;1.48;;;0.60;;
25615;SDS011;13482;48.234;13.006;2023-04-24T00:13:58;0.88;;;0.60;;
25615;SDS011;13482;48.234;13.006;2023-04-24T00:16:25;0.73;;;0.47;;
25615;SDS011;13482;48.234;13.006;2023-04-24T00:18:52;0.77;;;0.50;;
25615;SDS011;13482;48.234;13.006;2023-04-24T00:21:20;1.95;;;0.77;;
25615;SDS011;13482;48.234;13.006;2023-04-24T00:23:47;1.00;;;0.60;;
25615;SDS011;13482;48.234;13.006;2023-04-24T00:26:14;1.05;;;0.65;;
25615;SDS011;13482;48.234;13.006;2023-04-24T00:28:42;1.65;;;0.50;;
25615;SDS011;13482;48.234;13.006;2023-04-24T00:31:09;1.08;;;0.65;;
25615;SDS011;13482;48.234;13.006;2023-04-24T00:33:36;1.58;;;0.65;;
25615;SDS011;13482;48.234;13.006;2023-04-24T00:36:03;1.23;;;0.73;;
25615;SDS011;13482;48.234;13.006;2023-04-24T00:38:30;2.78;;;0.80;;
25615;SDS011;13482;48.234;13.006;2023-04-24T00:40:57;1.45;;;0.65;;
25615;SDS011;13482;48.234;13.006;2023-04-24T00:43:25;2.05;;;0.88;;
25615;SDS011;13482;48.234;13.006;2023-04-24T00:45:52;1.80;;;0.70;;
25615;SDS011;13482;48.234;13.006;2023-04-24T00:48:19;1.05;;;0.68;;
25615;SDS011;13482;48.234;13.006;2023-04-24T00:50:47;1.38;;;0.80;;
25615;SDS011;13482;48.234;13.006;2023-04-24T00:53:14;0.70;;;0.52;;
25615;SDS011;13482;48.234;13.006;2023-04-24T00:55:41;1.08;;;0.65;;
25615;SDS011;13482;48.234;13.006;2023-04-24T00:58:09;1.58;;;0.93;;
25615;SDS011;13482;48.234;13.006;2023-04-24T01:00:36;2.00;;;0.77;;
25615;SDS011;13482;48.234;13.006;2023-04-24T01:03:04;1.98;;;0.95;;
25615;SDS011;13482;48.234;13.006;2023-04-24T01:05:33;2.33;;;1.00;;
25615;SDS011;13482;48.234;13.006;2023-04-24T01:08:00;1.30;;;0.70;;
25615;SDS011;13482;48.234;13.006;2023-04-24T01:10:29;1.23;;;0.68;;
25615;SDS011;13482;48.234;13.006;2023-04-24T01:13:00;1.40;;;0.70;;
25615;SDS011;13482;48.234;13.006;2023-04-24T01:15:27;1.60;;;0.90;;
25615;SDS011;13482;48.234;13.006;2023-04-24T01:17:54;1.42;;;0.70;;
25615;SDS011;13482;48.234;13.006;2023-04-24T01:20:22;1.55;;;0.70;;
25615;SDS011;13482;48.234;13.006;2023-04-24T01:22:50;1.00;;;0.50;;
25615;SDS011;13482;48.234;13.006;2023-04-24T01:25:19;1.30;;;0.70;;
25615;SDS011;13482;48.234;13.006;2023-04-24T01:27:46;1.63;;;0.70;;
25615;SDS011;13482;48.234;13.006;2023-04-24T01:30:13;1.20;;;0.70;;
25615;SDS011;13482;48.234;13.006;2023-04-24T01:32:41;1.52;;;0.60;;
25615;SDS011;13482;48.234;13.006;2023-04-24T01:35:10;2.47;;;0.90;;
25615;SDS011;13482;48.234;13.006;2023-04-24T01:37:38;1.35;;;0.57;;
25615;SDS011;13482;48.234;13.006;2023-04-24T01:40:06;0.93;;;0.60;;
25615;SDS011;13482;48.234;13.006;2023-04-24T01:42:34;1.35;;;0.60;;
25615;SDS011;13482;48.234;13.006;2023-04-24T01:45:01;1.63;;;0.70;;
25615;SDS011;13482;48.234;13.006;2023-04-24T01:47:32;1.02;;;0.50;;
25615;SDS011;13482;48.234;13.006;2023-04-24T01:49:59;1.13;;;0.70;;
25615;SDS011;13482;48.234;13.006;2023-04-24T01:52:27;0.70;;;0.45;;
25615;SDS011;13482;48.234;13.006;2023-04-24T01:54:59;0.93;;;0.70;;
25615;SDS011;13482;48.234;13.006;2023-04-24T01:57:26;0.80;;;0.50;;
25615;SDS011;13482;48.234;13.006;2023-04-24T01:59:56;1.08;;;0.60;;
25615;SDS011;13482;48.234;13.006;2023-04-24T02:02:23;2.67;;;0.60;;
25615;SDS011;13482;48.234;13.006;2023-04-24T02:07:36;1.02;;;0.57;;
25615;SDS011;13482;48.234;13.006;2023-04-24T02:10:03;1.10;;;0.50;;
25615;SDS011;13482;48.234;13.006;2023-04-24T02:12:31;0.90;;;0.60;;
25615;SDS011;13482;48.234;13.006;2023-04-24T02:14:58;0.93;;;0.55;;
25615;SDS011;13482;48.234;13.006;2023-04-24T02:17:25;0.98;;;0.50;;
25615;SDS011;13482;48.234;13.006;2023-04-24T02:19:53;1.15;;;0.60;;
25615;SDS011;13482;48.234;13.006;2023-04-24T02:22:20;0.80;;;0.50;;
25615;SDS011;13482;48.234;13.006;2023-04-24T02:24:47;1.80;;;0.57;;
25615;SDS011;13482;48.234;13.006;2023-04-24T02:27:14;4.03;;;2.38;;
25615;SDS011;13482;48.234;13.006;2023-04-24T02:29:41;2.60;;;1.60;;
25615;SDS011;13482;48.234;13.006;2023-04-24T02:32:08;2.15;;;1.27;;
25615;SDS011;13482;48.234;13.006;2023-04-24T02:34:38;1.40;;;0.70;;
25615;SDS011;13482;48.234;13.006;2023-04-24T02:37:06;1.00;;;0.65;;
25615;SDS011;13482;48.234;13.006;2023-04-24T02:39:33;1.38;;;0.60;;
25615;SDS011;13482;48.234;13.006;2023-04-24T02:42:00;1.35;;;0.77;;
25615;SDS011;13482;48.234;13.006;2023-04-24T02:44:27;1.33;;;0.70;;
25615;SDS011;13482;48.234;13.006;2023-04-24T02:46:54;1.17;;;0.65;;
25615;SDS011;13482;48.234;13.006;2023-04-24T02:49:22;2.30;;;0.40;;
25615;SDS011;13482;48.234;13.006;2023-04-24T02:51:49;1.00;;;0.50;;
25615;SDS011;13482;48.234;13.006;2023-04-24T02:54:16;0.93;;;0.43;;
25615;SDS011;13482;48.234;13.006;2023-04-24T02:56:43;1.13;;;0.47;;
25615;SDS011;13482;48.234;13.006;2023-04-24T02:59:10;1.10;;;0.60;;
25615;SDS011;13482;48.234;13.006;2023-04-24T03:01:37;0.80;;;0.45;;
25615;SDS011;13482;48.234;13.006;2023-04-24T03:04:04;1.17;;;0.32;;
25615;SDS011;13482;48.234;13.006;2023-04-24T03:06:31;0.80;;;0.30;;
25615;SDS011;13482;48.234;13.006;2023-04-24T03:08:59;2.90;;;0.60;;
25615;SDS011;13482;48.234;13.006;2023-04-24T03:11:26;0.80;;;0.50;;
25615;SDS011;13482;48.234;13.006;2023-04-24T03:13:53;0.80;;;0.40;;
25615;SDS011;13482;48.234;13.006;2023-04-24T03:16:20;1.00;;;0.40;;
25615;SDS011;13482;48.234;13.006;2023-04-24T03:18:47;1.65;;;0.43;;
25615;SDS011;13482;48.234;13.006;2023-04-24T03:21:14;0.70;;;0.40;;
25615;SDS011;13482;48.234;13.006;2023-04-24T03:23:42;0.80;;;0.30;;
25615;SDS011;13482;48.234;13.006;2023-04-24T03:26:09;0.60;;;0.35;;
25615;SDS011;13482;48.234;13.006;2023-04-24T03:28:36;1.33;;;0.63;;
25615;SDS011;13482;48.234;13.006;2023-04-24T03:31:03;0.93;;;0.50;;
25615;SDS011;13482;48.234;13.006;2023-04-24T03:33:30;1.30;;;0.45;;
25615;SDS011;13482;48.234;13.006;2023-04-24T03:35:57;0.55;;;0.30;;
25615;SDS011;13482;48.234;13.006;2023-04-24T03:38:25;0.55;;;0.35;;
25615;SDS011;13482;48.234;13.006;2023-04-24T03:40:52;0.40;;;0.30;;
25615;SDS011;13482;48.234;13.006;2023-04-24T03:43:19;0.52;;;0.30;;
25615;SDS011;13482;48.234;13.006;2023-04-24T03:45:46;1.50;;;0.50;;
25615;SDS011;13482;48.234;13.006;2023-04-24T03:48:13;0.95;;;0.40;;
25615;SDS011;13482;48.234;13.006;2023-04-24T03:50:40;0.90;;;0.40;;
25615;SDS011;13482;48.234;13.006;2023-04-24T03:53:07;0.77;;;0.40;;
25615;SDS011;13482;48.234;13.006;2023-04-24T03:55:34;0.50;;;0.22;;
25615;SDS011;13482;48.234;13.006;2023-04-24T03:58:01;0.57;;;0.30;;
25615;SDS011;13482;48.234;13.006;2023-04-24T04:00:28;0.50;;;0.25;;
25615;SDS011;13482;48.234;13.006;2023-04-24T04:02:59;0.82;;;0.40;;
25615;SDS011;13482;48.234;13.006;2023-04-24T04:05:27;0.65;;;0.40;;
25615;SDS011;13482;48.234;13.006;2023-04-24T04:07:54;0.85;;;0.30;;
25615;SDS011;13482;48.234;13.006;2023-04-24T04:10:21;0.40;;;0.30;;
25615;SDS011;13482;48.234;13.006;2023-04-24T04:12:48;0.45;;;0.28;;
25615;SDS011;13482;48.234;13.006;2023-04-24T04:15:15;0.38;;;0.28;;
25615;SDS011;13482;48.234;13.006;2023-04-24T04:17:43;0.40;;;0.20;;
25615;SDS011;13482;48.234;13.006;2023-04-24T04:20:10;0.93;;;0.20;;
25615;SDS011;13482;48.234;13.006;2023-04-24T04:22:38;0.50;;;0.30;;
25615;SDS011;13482;48.234;13.006;2023-04-24T04:25:07;0.40;;;0.20;;
25615;SDS011;13482;48.234;13.006;2023-04-24T04:27:35;0.60;;;0.28;;
25615;SDS011;13482;48.234;13.006;2023-04-24T04:30:02;1.42;;;0.32;;
25615;SDS011;13482;48.234;13.006;2023-04-24T04:32:34;0.10;;;0.10;;
25615;SDS011;13482;48.234;13.006;2023-04-24T04:35:01;0.63;;;0.30;;
25615;SDS011;13482;48.234;13.006;2023-04-24T04:37:29;0.75;;;0.30;;
25615;SDS011;13482;48.234;13.006;2023-04-24T04:39:57;0.75;;;0.30;;
25615;SDS011;13482;48.234;13.006;2023-04-24T04:42:25;0.20;;;0.20;;
25615;SDS011;13482;48.234;13.006;2023-04-24T04:44:53;1.40;;;0.30;;
25615;SDS011;13482;48.234;13.006;2023-04-24T04:47:22;0.65;;;0.30;;
25615;SDS011;13482;48.234;13.006;2023-04-24T04:49:50;0.65;;;0.30;;
25615;SDS011;13482;48.234;13.006;2023-04-24T04:52:19;0.35;;;0.22;;
25615;SDS011;13482;48.234;13.006;2023-04-24T04:54:51;0.40;;;0.30;;
25615;SDS011;13482;48.234;13.006;2023-04-24T04:57:18;0.68;;;0.43;;
25615;SDS011;13482;48.234;13.006;2023-04-24T04:59:46;1.27;;;0.65;;
25615;SDS011;13482;48.234;13.006;2023-04-24T05:02:14;0.85;;;0.50;;
25615;SDS011;13482;48.234;13.006;2023-04-24T05:04:41;2.85;;;1.20;;
25615;SDS011;13482;48.234;13.006;2023-04-24T05:07:09;1.52;;;0.90;;
25615;SDS011;13482;48.234;13.006;2023-04-24T05:09:36;0.93;;;0.60;;
25615;SDS011;13482;48.234;13.006;2023-04-24T05:12:03;0.98;;;0.60;;
25615;SDS011;13482;48.234;13.006;2023-04-24T05:14:30;1.60;;;0.52;;
25615;SDS011;13482;48.234;13.006;2023-04-24T05:16:57;0.52;;;0.30;;
25615;SDS011;13482;48.234;13.006;2023-04-24T05:19:26;0.40;;;0.30;;
25615;SDS011;13482;48.234;13.006;2023-04-24T05:21:53;1.48;;;0.50;;
25615;SDS011;13482;48.234;13.006;2023-04-24T05:24:20;0.60;;;0.40;;
25615;SDS011;13482;48.234;13.006;2023-04-24T05:26:47;0.38;;;0.20;;
25615;SDS011;13482;48.234;13.006;2023-04-24T05:29:14;0.60;;;0.30;;
25615;SDS011;13482;48.234;13.006;2023-04-24T05:31:41;0.30;;;0.20;;
25615;SDS011;13482;48.234;13.006;2023-04-24T05:34:09;0.98;;;0.47;;
25615;SDS011;13482;48.234;13.006;2023-04-24T05:36:36;0.47;;;0.32;;
25615;SDS011;13482;48.234;13.006;2023-04-24T05:39:03;0.30;;;0.28;;
25615;SDS011;13482;48.234;13.006;2023-04-24T05:41:33;0.30;;;0.25;;
25615;SDS011;13482;48.234;13.006;2023-04-24T05:44:01;0.40;;;0.30;;
25615;SDS011;13482;48.234;13.006;2023-04-24T05:46:28;0.82;;;0.38;;
25615;SDS011;13482;48.234;13.006;2023-04-24T05:48:55;0.75;;;0.40;;
25615;SDS011;13482;48.234;13.006;2023-04-24T05:51:22;0.63;;;0.32;;
25615;SDS011;13482;48.234;13.006;2023-04-24T05:53:50;0.35;;;0.20;;
25615;SDS011;13482;48.234;13.006;2023-04-24T05:56:17;0.70;;;0.40;;
25615;SDS011;13482;48.234;13.006;2023-04-24T05:58:45;0.88;;;0.30;;
25615;SDS011;13482;48.234;13.006;2023-04-24T06:01:13;0.45;;;0.20;;
25615;SDS011;13482;48.234;13.006;2023-04-24T06:03:43;0.63;;;0.22;;
25615;SDS011;13482;48.234;13.006;2023-04-24T06:06:10;1.60;;;0.50;;
25615;SDS011;13482;48.234;13.006;2023-04-24T06:08:38;0.40;;;0.28;;
25615;SDS011;13482;48.234;13.006;2023-04-24T06:11:05;0.30;;;0.20;;
25615;SDS011;13482;48.234;13.006;2023-04-24T06:13:32;0.82;;;0.40;;
25615;SDS011;13482;48.234;13.006;2023-04-24T06:15:59;1.30;;;0.30;;
25615;SDS011;13482;48.234;13.006;2023-04-24T06:18:26;0.90;;;0.20;;
25615;SDS011;13482;48.234;13.006;2023-04-24T06:20:53;1.75;;;0.20;;
25615;SDS011;13482;48.234;13.006;2023-04-24T06:23:21;0.50;;;0.40;;
25615;SDS011;13482;48.234;13.006;2023-04-24T06:25:48;0.60;;;0.30;;
25615;SDS011;13482;48.234;13.006;2023-04-24T06:28:16;0.60;;;0.30;;
25615;SDS011;13482;48.234;13.006;2023-04-24T06:30:43;0.52;;;0.30;;
25615;SDS011;13482;48.234;13.006;2023-04-24T06:33:10;0.85;;;0.30;;
25615;SDS011;13482;48.234;13.006;2023-04-24T06:35:46;0.57;;;0.28;;
25615;SDS011;13482;48.234;13.006;2023-04-24T06:38:13;0.40;;;0.20;;
25615;SDS011;13482;48.234;13.006;2023-04-24T06:40:40;0.60;;;0.20;;
25615;SDS011;13482;48.234;13.006;2023-04-24T06:43:10;1.65;;;0.20;;
25615;SDS011;13482;48.234;13.006;2023-04-24T06:45:38;0.82;;;0.20;;
25615;SDS011;13482;48.234;13.006;2023-04-24T06:48:06;0.45;;;0.30;;
25615;SDS011;13482;48.234;13.006;2023-04-24T06:50:33;0.73;;;0.30;;
25615;SDS011;13482;48.234;13.006;2023-04-24T06:53:00;0.80;;;0.30;;
25615;SDS011;13482;48.234;13.006;2023-04-24T06:55:27;0.93;;;0.20;;
25615;SDS011;13482;48.234;13.006;2023-04-24T06:57:54;0.60;;;0.20;;
25615;SDS011;13482;48.234;13.006;2023-04-24T07:00:22;0.65;;;0.40;;
25615;SDS011;13482;48.234;13.006;2023-04-24T07:02:50;0.32;;;0.20;;
25615;SDS011;13482;48.234;13.006;2023-04-24T07:05:18;0.65;;;0.20;;
25615;SDS011;13482;48.234;13.006;2023-04-24T07:07:49;0.25;;;0.10;;
25615;SDS011;13482;48.234;13.006;2023-04-24T07:10:17;0.30;;;0.15;;
25615;SDS011;13482;48.234;13.006;2023-04-24T07:12:44;0.30;;;0.10;;
25615;SDS011;13482;48.234;13.006;2023-04-24T07:15:12;0.77;;;0.50;;
25615;SDS011;13482;48.234;13.006;2023-04-24T07:17:39;0.98;;;0.60;;
25615;SDS011;13482;48.234;13.006;2023-04-24T07:20:10;1.73;;;0.70;;
25615;SDS011;13482;48.234;13.006;2023-04-24T07:22:37;0.30;;;0.30;;
25615;SDS011;13482;48.234;13.006;2023-04-24T07:25:05;0.47;;;0.25;;
25615;SDS011;13482;48.234;13.006;2023-04-24T07:27:33;0.60;;;0.20;;
25615;SDS011;13482;48.234;13.006;2023-04-24T07:30:03;1.10;;;0.30;;
25615;SDS011;13482;48.234;13.006;2023-04-24T07:32:31;0.22;;;0.15;;
25615;SDS011;13482;48.234;13.006;2023-04-24T07:34:58;0.40;;;0.20;;
25615;SDS011;13482;48.234;13.006;2023-04-24T07:37:26;1.50;;;0.32;;
25615;SDS011;13482;48.234;13.006;2023-04-24T07:39:54;0.50;;;0.20;;
25615;SDS011;13482;48.234;13.006;2023-04-24T07:42:21;0.68;;;0.17;;
25615;SDS011;13482;48.234;13.006;2023-04-24T07:44:48;0.38;;;0.10;;
25615;SDS011;13482;48.234;13.006;2023-04-24T07:47:17;0.47;;;0.17;;
25615;SDS011;13482;48.234;13.006;2023-04-24T07:49:44;0.52;;;0.10;;
25615;SDS011;13482;48.234;13.006;2023-04-24T07:52:11;0.50;;;0.10;;
25615;SDS011;13482;48.234;13.006;2023-04-24T07:54:38;0.47;;;0.10;;
25615;SDS011;13482;48.234;13.006;2023-04-24T07:57:05;0.10;;;0.00;;
25615;SDS011;13482;48.234;13.006;2023-04-24T07:59:34;0.22;;;0.10;;
25615;SDS011;13482;48.234;13.006;2023-04-24T08:02:01;0.65;;;0.20;;
25615;SDS011;13482;48.234;13.006;2023-04-24T08:04:28;0.13;;;0.10;;
25615;SDS011;13482;48.234;13.006;2023-04-24T08:06:56;0.03;;;0.00;;
25615;SDS011;13482;48.234;13.006;2023-04-24T08:09:23;0.50;;;0.20;;
25615;SDS011;13482;48.234;13.006;2023-04-24T08:11:52;0.50;;;0.22;;
25615;SDS011;13482;48.234;13.006;2023-04-24T08:14:20;0.93;;;0.30;;
25615;SDS011;13482;48.234;13.006;2023-04-24T08:16:50;1.20;;;0.22;;
25615;SDS011;13482;48.234;13.006;2023-04-24T08:19:21;0.88;;;0.30;;
25615;SDS011;13482;48.234;13.006;2023-04-24T08:21:48;0.75;;;0.30;;
25615;SDS011;13482;48.234;13.006;2023-04-24T08:24:15;0.70;;;0.50;;
25615;SDS011;13482;48.234;13.006;2023-04-24T08:26:42;0.55;;;0.28;;
25615;SDS011;13482;48.234;13.006;2023-04-24T08:29:09;0.35;;;0.20;;
25615;SDS011;13482;48.234;13.006;2023-04-24T08:31:36;1.55;;;0.20;;
25615;SDS011;13482;48.234;13.006;2023-04-24T08:34:04;0.60;;;0.30;;
25615;SDS011;13482;48.234;13.006;2023-04-24T08:36:31;0.55;;;0.28;;
25615;SDS011;13482;48.234;13.006;2023-04-24T08:39:12;0.73;;;0.30;;
25615;SDS011;13482;48.234;13.006;2023-04-24T08:41:41;1.38;;;0.30;;
25615;SDS011;13482;48.234;13.006;2023-04-24T08:44:09;0.45;;;0.13;;
25615;SDS011;13482;48.234;13.006;2023-04-24T08:46:37;0.10;;;0.10;;
25615;SDS011;13482;48.234;13.006;2023-04-24T08:49:04;0.32;;;0.20;;
25615;SDS011;13482;48.234;13.006;2023-04-24T08:51:31;0.10;;;0.10;;
25615;SDS011;13482;48.234;13.006;2023-04-24T08:53:59;0.40;;;0.20;;
25615;SDS011;13482;48.234;13.006;2023-04-24T08:56:28;0.20;;;0.15;;
25615;SDS011;13482;48.234;13.006;2023-04-24T08:58:57;0.20;;;0.10;;
25615;SDS011;13482;48.234;13.006;2023-04-24T09:01:24;0.28;;;0.20;;
25615;SDS011;13482;48.234;13.006;2023-04-24T09:03:53;0.75;;;0.30;;
25615;SDS011;13482;48.234;13.006;2023-04-24T09:06:22;0.30;;;0.20;;
25615;SDS011;13482;48.234;13.006;2023-04-24T09:08:51;0.63;;;0.28;;
25615;SDS011;13482;48.234;13.006;2023-04-24T09:11:22;0.70;;;0.30;;
25615;SDS011;13482;48.234;13.006;2023-04-24T09:13:52;0.20;;;0.20;;
25615;SDS011;13482;48.234;13.006;2023-04-24T09:16:21;0.30;;;0.20;;
25615;SDS011;13482;48.234;13.006;2023-04-24T09:18:50;0.68;;;0.20;;
25615;SDS011;13482;48.234;13.006;2023-04-24T09:21:19;0.28;;;0.20;;
25615;SDS011;13482;48.234;13.006;2023-04-24T09:24:02;0.20;;;0.20;;
25615;SDS011;13482;48.234;13.006;2023-04-24T09:26:36;1.67;;;0.22;;
25615;SDS011;13482;48.234;13.006;2023-04-24T09:29:03;0.32;;;0.10;;
25615;SDS011;13482;48.234;13.006;2023-04-24T09:31:31;0.88;;;0.20;;
25615;SDS011;13482;48.234;13.006;2023-04-24T09:34:00;0.10;;;0.10;;
25615;SDS011;13482;48.234;13.006;2023-04-24T09:36:37;0.17;;;0.10;;
25615;SDS011;13482;48.234;13.006;2023-04-24T09:39:08;0.38;;;0.10;;
25615;SDS011;13482;48.234;13.006;2023-04-24T09:44:27;0.80;;;0.15;;
25615;SDS011;13482;48.234;13.006;2023-04-24T09:49:27;0.17;;;0.10;;
25615;SDS011;13482;48.234;13.006;2023-04-24T09:52:06;0.30;;;0.20;;
25615;SDS011;13482;48.234;13.006;2023-04-24T09:54:36;0.65;;;0.10;;
25615;SDS011;13482;48.234;13.006;2023-04-24T09:57:05;0.60;;;0.20;;
25615;SDS011;13482;48.234;13.006;2023-04-24T09:59:35;0.50;;;0.17;;
25615;SDS011;13482;48.234;13.006;2023-04-24T10:02:20;0.93;;;0.30;;
25615;SDS011;13482;48.234;13.006;2023-04-24T10:04:54;0.40;;;0.10;;
25615;SDS011;13482;48.234;13.006;2023-04-24T10:07:26;0.45;;;0.20;;
25615;SDS011;13482;48.234;13.006;2023-04-24T10:09:54;1.30;;;0.30;;
25615;SDS011;13482;48.234;13.006;2023-04-24T10:12:21;0.77;;;0.20;;
25615;SDS011;13482;48.234;13.006;2023-04-24T10:14:49;0.30;;;0.20;;
25615;SDS011;13482;48.234;13.006;2023-04-24T10:17:16;0.93;;;0.38;;
25615;SDS011;13482;48.234;13.006;2023-04-24T10:19:46;1.30;;;0.47;;
25615;SDS011;13482;48.234;13.006;2023-04-24T10:22:14;1.10;;;0.30;;
25615;SDS011;13482;48.234;13.006;2023-04-24T10:24:44;0.98;;;0.50;;
25615;SDS011;13482;48.234;13.006;2023-04-24T10:27:12;1.70;;;0.52;;
25615;SDS011;13482;48.234;13.006;2023-04-24T10:29:41;2.38;;;1.42;;
25615;SDS011;13482;48.234;13.006;2023-04-24T10:32:11;1.63;;;0.93;;
25615;SDS011;13482;48.234;13.006;2023-04-24T10:34:38;1.45;;;0.40;;
25615;SDS011;13482;48.234;13.006;2023-04-24T10:37:05;0.90;;;0.22;;
25615;SDS011;13482;48.234;13.006;2023-04-24T10:39:32;0.70;;;0.30;;
25615;SDS011;13482;48.234;13.006;2023-04-24T10:42:00;0.28;;;0.10;;
25615;SDS011;13482;48.234;13.006;2023-04-24T10:44:35;2.55;;;1.00;;
25615;SDS011;13482;48.234;13.006;2023-04-24T10:47:03;2.15;;;0.70;;
25615;SDS011;13482;48.234;13.006;2023-04-24T10:49:31;2.80;;;0.55;;
25615;SDS011;13482;48.234;13.006;2023-04-24T10:52:02;1.92;;;0.45;;
25615;SDS011;13482;48.234;13.006;2023-04-24T10:54:41;0.50;;;0.40;;
25615;SDS011;13482;48.234;13.006;2023-04-24T10:59:49;0.60;;;0.38;;
25615;SDS011;13482;48.234;13.006;2023-04-24T11:02:40;0.35;;;0.20;;
25615;SDS011;13482;48.234;13.006;2023-04-24T11:05:15;0.40;;;0.20;;
25615;SDS011;13482;48.234;13.006;2023-04-24T11:10:43;0.95;;;0.32;;
25615;SDS011;13482;48.234;13.006;2023-04-24T11:13:16;0.38;;;0.20;;
25615;SDS011;13482;48.234;13.006;2023-04-24T11:18:49;0.50;;;0.25;;
25615;SDS011;13482;48.234;13.006;2023-04-24T11:21:20;1.85;;;0.20;;
25615;SDS011;13482;48.234;13.006;2023-04-24T11:23:49;0.73;;;0.32;;
25615;SDS011;13482;48.234;13.006;2023-04-24T11:26:18;0.28;;;0.25;;
25615;SDS011;13482;48.234;13.006;2023-04-24T11:28:49;0.77;;;0.30;;
25615;SDS011;13482;48.234;13.006;2023-04-24T11:31:36;0.52;;;0.30;;
25615;SDS011;13482;48.234;13.006;2023-04-24T11:34:06;1.33;;;0.30;;
25615;SDS011;13482;48.234;13.006;2023-04-24T11:36:39;1.48;;;0.30;;
25615;SDS011;13482;48.234;13.006;2023-04-24T11:39:10;1.42;;;0.50;;
25615;SDS011;13482;48.234;13.006;2023-04-24T11:41:38;0.90;;;0.57;;
25615;SDS011;13482;48.234;13.006;2023-04-24T11:44:06;1.33;;;0.57;;
25615;SDS011;13482;48.234;13.006;2023-04-24T11:46:34;1.35;;;0.70;;
25615;SDS011;13482;48.234;13.006;2023-04-24T11:49:04;1.23;;;0.50;;
25615;SDS011;13482;48.234;13.006;2023-04-24T11:51:31;1.55;;;0.50;;
25615;SDS011;13482;48.234;13.006;2023-04-24T11:54:13;1.00;;;0.60;;
25615;SDS011;13482;48.234;13.006;2023-04-24T11:56:44;1.10;;;0.50;;
25615;SDS011;13482;48.234;13.006;2023-04-24T11:59:14;1.65;;;0.65;;
25615;SDS011;13482;48.234;13.006;2023-04-24T12:01:47;0.93;;;0.50;;
25615;SDS011;13482;48.234;13.006;2023-04-24T12:04:16;1.35;;;0.55;;
25615;SDS011;13482;48.234;13.006;2023-04-24T12:07:01;1.25;;;0.68;;
25615;SDS011;13482;48.234;13.006;2023-04-24T12:09:40;1.63;;;0.70;;
25615;SDS011;13482;48.234;13.006;2023-04-24T12:12:14;0.75;;;0.55;;
25615;SDS011;13482;48.234;13.006;2023-04-24T12:14:43;1.73;;;0.80;;
25615;SDS011;13482;48.234;13.006;2023-04-24T12:17:28;1.52;;;0.75;;
25615;SDS011;13482;48.234;13.006;2023-04-24T12:19:58;1.10;;;0.70;;
25615;SDS011;13482;48.234;13.006;2023-04-24T12:22:27;1.30;;;0.80;;
25615;SDS011;13482;48.234;13.006;2023-04-24T12:25:10;0.82;;;0.60;;
25615;SDS011;13482;48.234;13.006;2023-04-24T12:27:38;0.82;;;0.50;;
25615;SDS011;13482;48.234;13.006;2023-04-24T12:30:05;1.20;;;0.50;;
25615;SDS011;13482;48.234;13.006;2023-04-24T12:32:40;1.10;;;0.70;;
25615;SDS011;13482;48.234;13.006;2023-04-24T12:35:09;3.00;;;1.10;;
25615;SDS011;13482;48.234;13.006;2023-04-24T12:37:37;1.83;;;0.80;;
25615;SDS011;13482;48.234;13.006;2023-04-24T12:40:06;1.20;;;0.70;;
25615;SDS011;13482;48.234;13.006;2023-04-24T12:42:41;2.03;;;0.50;;
25615;SDS011;13482;48.234;13.006;2023-04-24T12:45:13;1.00;;;0.45;;
25615;SDS011;13482;48.234;13.006;2023-04-24T12:47:42;1.42;;;0.50;;
25615;SDS011;13482;48.234;13.006;2023-04-24T12:50:11;0.80;;;0.50;;
25615;SDS011;13482;48.234;13.006;2023-04-24T12:52:43;1.80;;;0.55;;
25615;SDS011;13482;48.234;13.006;2023-04-24T12:55:10;0.80;;;0.45;;
25615;SDS011;13482;48.234;13.006;2023-04-24T12:57:39;1.25;;;0.47;;
25615;SDS011;13482;48.234;13.006;2023-04-24T13:00:07;1.40;;;0.52;;
25615;SDS011;13482;48.234;13.006;2023-04-24T13:02:35;1.20;;;0.47;;
25615;SDS011;13482;48.234;13.006;2023-04-24T13:05:03;1.33;;;0.52;;
25615;SDS011;13482;48.234;13.006;2023-04-24T13:07:31;0.98;;;0.40;;
25615;SDS011;13482;48.234;13.006;2023-04-24T13:09:58;0.60;;;0.30;;
25615;SDS011;13482;48.234;13.006;2023-04-24T13:12:25;0.60;;;0.40;;
25615;SDS011;13482;48.234;13.006;2023-04-24T13:14:52;0.90;;;0.40;;
25615;SDS011;13482;48.234;13.006;2023-04-24T13:17:20;0.68;;;0.40;;
25615;SDS011;13482;48.234;13.006;2023-04-24T13:19:49;1.60;;;0.50;;
25615;SDS011;13482;48.234;13.006;2023-04-24T13:22:18;0.95;;;0.57;;
25615;SDS011;13482;48.234;13.006;2023-04-24T13:24:45;1.05;;;0.80;;
25615;SDS011;13482;48.234;13.006;2023-04-24T13:27:15;1.23;;;0.50;;
25615;SDS011;13482;48.234;13.006;2023-04-24T13:29:43;0.93;;;0.50;;
25615;SDS011;13482;48.234;13.006;2023-04-24T13:32:10;0.47;;;0.30;;
25615;SDS011;13482;48.234;13.006;2023-04-24T13:34:38;0.47;;;0.32;;
25615;SDS011;13482;48.234;13.006;2023-04-24T13:37:05;0.35;;;0.22;;
25615;SDS011;13482;48.234;13.006;2023-04-24T13:39:34;0.30;;;0.20;;
25615;SDS011;13482;48.234;13.006;2023-04-24T13:42:02;0.38;;;0.20;;
25615;SDS011;13482;48.234;13.006;2023-04-24T13:44:30;0.50;;;0.30;;
25615;SDS011;13482;48.234;13.006;2023-04-24T13:46:57;0.80;;;0.30;;
25615;SDS011;13482;48.234;13.006;2023-04-24T13:49:25;0.60;;;0.20;;
25615;SDS011;13482;48.234;13.006;2023-04-24T13:51:53;0.45;;;0.30;;
25615;SDS011;13482;48.234;13.006;2023-04-24T13:54:22;0.60;;;0.25;;
25615;SDS011;13482;48.234;13.006;2023-04-24T13:56:52;0.63;;;0.22;;
25615;SDS011;13482;48.234;13.006;2023-04-24T13:59:23;0.47;;;0.30;;
25615;SDS011;13482;48.234;13.006;2023-04-24T14:01:50;0.68;;;0.30;;
25615;SDS011;13482;48.234;13.006;2023-04-24T14:04:17;0.55;;;0.40;;
25615;SDS011;13482;48.234;13.006;2023-04-24T14:06:45;0.60;;;0.30;;
25615;SDS011;13482;48.234;13.006;2023-04-24T14:09:12;0.98;;;0.50;;
25615;SDS011;13482;48.234;13.006;2023-04-24T14:11:39;1.33;;;0.55;;
25615;SDS011;13482;48.234;13.006;2023-04-24T14:14:07;0.60;;;0.50;;
25615;SDS011;13482;48.234;13.006;2023-04-24T14:16:34;0.57;;;0.30;;
25615;SDS011;13482;48.234;13.006;2023-04-24T14:19:01;0.63;;;0.40;;
25615;SDS011;13482;48.234;13.006;2023-04-24T14:21:29;1.17;;;0.65;;
25615;SDS011;13482;48.234;13.006;2023-04-24T14:23:56;0.88;;;0.47;;
25615;SDS011;13482;48.234;13.006;2023-04-24T14:26:23;1.33;;;0.50;;
25615;SDS011;13482;48.234;13.006;2023-04-24T14:28:51;0.75;;;0.50;;
25615;SDS011;13482;48.234;13.006;2023-04-24T14:31:29;0.80;;;0.40;;
25615;SDS011;13482;48.234;13.006;2023-04-24T14:33:56;0.60;;;0.50;;
25615;SDS011;13482;48.234;13.006;2023-04-24T14:36:23;0.70;;;0.50;;
25615;SDS011;13482;48.234;13.006;2023-04-24T14:38:50;1.50;;;0.55;;
25615;SDS011;13482;48.234;13.006;2023-04-24T14:41:18;2.47;;;0.80;;
25615;SDS011;13482;48.234;13.006;2023-04-24T14:43:45;1.33;;;0.70;;
25615;SDS011;13482;48.234;13.006;2023-04-24T14:46:12;1.55;;;0.60;;
25615;SDS011;13482;48.234;13.006;2023-04-24T14:48:40;1.35;;;0.50;;
25615;SDS011;13482;48.234;13.006;2023-04-24T14:51:07;0.70;;;0.45;;
25615;SDS011;13482;48.234;13.006;2023-04-24T14:53:34;0.30;;;0.30;;
25615;SDS011;13482;48.234;13.006;2023-04-24T14:56:01;1.48;;;0.40;;
25615;SDS011;13482;48.234;13.006;2023-04-24T14:58:29;0.63;;;0.40;;